createdAt,value
2018-11-02T00:01:35.279Z,39.17
2018-11-02T00:04:05.332Z,33.17
2018-11-02T00:06:34.984Z,30.67
2018-11-02T00:09:06.622Z,65.60
2018-11-02T00:11:37.260Z,54.90
2018-11-02T00:14:07.892Z,32.53
2018-11-02T00:16:37.508Z,84.07
2018-11-02T00:19:07.260Z,54.17
2018-11-02T00:21:36.870Z,26.60
2018-11-02T00:24:06.493Z,53.27
2018-11-02T00:26:36.106Z,64.63
2018-11-02T00:29:06.041Z,35.47
2018-11-02T00:31:36.080Z,37.17
2018-11-02T00:34:05.838Z,80.37
2018-11-02T00:36:35.466Z,26.23
2018-11-02T00:39:06.334Z,24.17
2018-11-02T00:41:36.960Z,24.87
2018-11-02T00:44:06.916Z,24.17
2018-11-02T00:46:36.415Z,41.30
2018-11-02T00:49:06.684Z,44.97
2018-11-02T00:51:37.024Z,34.20
2018-11-02T00:54:07.296Z,45.10
2018-11-02T00:56:36.898Z,33.93
2018-11-02T00:59:06.619Z,43.27
2018-11-02T01:01:37.263Z,25.10
2018-11-02T01:04:07.103Z,21.23
2018-11-02T01:06:37.797Z,21.43
2018-11-02T01:09:09.546Z,21.50
2018-11-02T01:11:39.159Z,20.20
2018-11-02T01:14:08.866Z,20.93
2018-11-02T01:16:38.632Z,21.17
2018-11-02T01:19:08.200Z,19.03
2018-11-02T01:21:37.844Z,19.87
2018-11-02T01:24:07.504Z,20.50
2018-11-02T01:26:37.136Z,19.93
2018-11-02T01:29:06.826Z,18.57
2018-11-02T01:31:37.449Z,19.60
2018-11-02T01:34:08.083Z,27.63
2018-11-02T01:36:37.738Z,19.90
2018-11-02T01:39:09.202Z,22.03
2018-11-02T01:41:38.856Z,24.87
2018-11-02T01:44:08.482Z,32.97
2018-11-02T01:46:38.120Z,23.57
2018-11-02T01:49:08.020Z,33.97
2018-11-02T01:51:37.628Z,44.67
2018-11-02T01:54:07.267Z,51.87
2018-11-02T01:56:36.937Z,19.70
2018-11-02T01:59:06.926Z,33.27
2018-11-02T02:01:36.565Z,27.90
2018-11-02T02:04:06.688Z,35.00
2018-11-02T02:06:37.319Z,27.13
2018-11-02T02:09:09.833Z,40.97
2018-11-02T02:11:40.575Z,40.27
2018-11-02T02:14:10.235Z,32.73
2018-11-02T02:16:39.831Z,29.97
2018-11-02T02:19:09.996Z,33.80
2018-11-02T02:21:39.622Z,38.17
2018-11-02T02:24:09.213Z,30.00
2018-11-02T02:26:38.824Z,20.73
2018-11-02T02:29:08.438Z,26.60
2018-11-02T02:31:38.057Z,20.23
2018-11-02T02:34:07.676Z,20.40
2018-11-02T02:36:37.272Z,22.63
2018-11-02T02:39:08.678Z,23.97
2018-11-02T02:41:38.507Z,23.27
2018-11-02T02:44:08.504Z,22.97
2018-11-02T02:46:38.125Z,24.10
2018-11-02T02:49:08.011Z,29.37
2018-11-02T02:51:37.603Z,26.00
2018-11-02T02:54:07.212Z,21.17
2018-11-02T02:56:37.818Z,19.67
2018-11-02T02:59:07.534Z,19.47
2018-11-02T03:01:37.136Z,19.97
2018-11-02T03:04:06.794Z,20.73
2018-11-02T03:06:36.446Z,19.63
2018-11-02T03:09:07.831Z,19.77
2018-11-02T03:11:37.692Z,20.40
2018-11-02T03:14:08.415Z,18.77
2018-11-02T03:16:39.044Z,19.93
2018-11-02T03:19:08.689Z,19.00
2018-11-02T03:21:38.291Z,19.20
2018-11-02T03:24:07.952Z,18.30
2018-11-02T03:26:37.864Z,18.43
2018-11-02T03:29:07.499Z,20.20
2018-11-02T03:31:37.114Z,19.87
2018-11-02T03:34:07.084Z,17.90
2018-11-02T03:36:36.963Z,17.53
2018-11-02T03:39:09.156Z,17.73
2018-11-02T03:41:39.761Z,18.50
2018-11-02T03:44:09.466Z,17.87
2018-11-02T03:46:39.447Z,17.40
2018-11-02T03:49:09.231Z,19.63
2018-11-02T03:51:38.845Z,19.63
2018-11-02T03:54:08.525Z,16.40
2018-11-02T03:56:38.677Z,15.23
2018-11-02T03:59:08.288Z,14.10
2018-11-02T04:01:37.890Z,14.03
2018-11-02T04:04:07.563Z,13.17
2018-11-02T04:06:37.161Z,13.23
2018-11-02T04:09:07.735Z,14.17
2018-11-02T04:11:37.391Z,12.73
2018-11-02T04:14:07.136Z,12.43
2018-11-02T04:16:36.683Z,11.87
2018-11-02T04:19:06.336Z,12.10
2018-11-02T04:21:44.839Z,11.27
2018-11-02T04:24:14.745Z,11.97
2018-11-02T04:26:44.416Z,11.37
2018-11-02T04:29:15.102Z,12.07
2018-11-02T04:31:45.727Z,11.67
2018-11-02T04:34:16.404Z,10.87
2018-11-02T04:36:49.000Z,11.67
2018-11-02T04:39:18.638Z,12.17
2018-11-02T04:41:49.368Z,11.40
2018-11-02T04:44:19.011Z,11.60
2018-11-02T04:46:48.605Z,12.33
2018-11-02T04:49:18.248Z,13.10
2018-11-02T04:51:47.867Z,12.07
2018-11-02T04:54:17.533Z,12.80
2018-11-02T04:56:47.146Z,12.90
2018-11-02T04:59:17.876Z,13.97
2018-11-02T05:01:47.535Z,12.80
2018-11-02T05:04:17.198Z,14.30
2018-11-02T05:06:46.807Z,14.40
2018-11-02T05:09:17.476Z,13.67
2018-11-02T05:11:50.111Z,15.90
2018-11-02T05:14:19.774Z,15.53
2018-11-02T05:16:49.388Z,12.63
2018-11-02T05:19:19.038Z,11.47
2018-11-02T05:21:48.658Z,12.87
2018-11-02T05:24:18.254Z,11.40
2018-11-02T05:26:47.869Z,11.40
2018-11-02T05:29:17.472Z,11.47
2018-11-02T05:31:47.791Z,11.20
2018-11-02T05:34:17.403Z,11.17
2018-11-02T05:36:47.038Z,10.63
2018-11-02T05:39:16.705Z,11.03
2018-11-02T05:41:47.335Z,11.30
2018-11-02T05:44:16.990Z,11.93
2018-11-02T05:46:46.616Z,13.23
2018-11-02T05:49:16.219Z,16.97
2018-11-02T05:51:45.833Z,13.10
2018-11-02T05:54:15.468Z,12.33
2018-11-02T05:56:45.136Z,13.03
2018-11-02T05:59:14.789Z,46.90
2018-11-02T06:01:44.449Z,19.10
2018-11-02T06:04:14.072Z,23.67
2018-11-02T06:06:44.687Z,26.47
2018-11-02T06:09:15.362Z,27.13
2018-11-02T06:11:45.970Z,19.33
2018-11-02T06:14:15.643Z,16.23
2018-11-02T06:16:45.280Z,15.03
2018-11-02T06:19:14.887Z,14.60
2018-11-02T06:21:44.484Z,16.83
2018-11-02T06:24:14.107Z,15.87
2018-11-02T06:26:44.102Z,18.23
2018-11-02T06:29:13.730Z,45.80
2018-11-02T06:31:44.330Z,14.20
2018-11-02T06:34:15.238Z,16.10
2018-11-02T06:36:44.846Z,16.77
2018-11-02T06:39:15.496Z,13.87
2018-11-02T06:41:45.301Z,12.10
2018-11-02T06:44:14.908Z,12.13
2018-11-02T06:46:44.532Z,18.73
2018-11-02T06:49:14.265Z,12.00
2018-11-02T06:51:43.904Z,10.97
2018-11-02T06:54:14.545Z,11.10
2018-11-02T06:56:44.155Z,9.83
2018-11-02T06:59:15.889Z,10.60
2018-11-02T07:01:45.507Z,9.57
2018-11-02T07:04:16.426Z,10.50
2018-11-02T07:06:46.290Z,10.57
2018-11-02T07:09:16.158Z,11.03
2018-11-02T07:11:48.916Z,10.67
2018-11-02T07:14:18.635Z,10.07
2018-11-02T07:16:48.240Z,10.23
2018-11-02T07:19:19.036Z,9.70
2018-11-02T07:21:48.747Z,9.43
2018-11-02T07:24:18.484Z,10.67
2018-11-02T07:26:48.211Z,10.63
2018-11-02T07:29:18.863Z,10.50
2018-11-02T07:31:50.790Z,10.07
2018-11-02T07:34:21.540Z,11.27
2018-11-02T07:36:52.101Z,10.60
2018-11-02T07:39:29.675Z,9.78
2018-11-02T07:41:59.533Z,11.23
2018-11-02T07:44:29.184Z,11.10
2018-11-02T07:46:59.475Z,9.50
2018-11-02T07:49:33.533Z,10.20
2018-11-02T07:52:04.297Z,9.90
2018-11-02T07:54:34.248Z,9.77
2018-11-02T07:57:04.125Z,10.00
2018-11-02T07:59:34.083Z,9.40
2018-11-02T08:02:04.052Z,9.93
2018-11-02T08:04:34.924Z,10.23
2018-11-02T08:07:06.903Z,9.57
2018-11-02T08:09:36.816Z,9.60
2018-11-02T08:12:06.727Z,9.53
2018-11-02T08:14:37.685Z,8.97
2018-11-02T08:17:09.643Z,9.73
2018-11-02T08:19:40.572Z,10.17
2018-11-02T08:22:10.425Z,9.27
2018-11-02T08:24:42.460Z,9.33
2018-11-02T08:27:13.295Z,8.70
2018-11-02T08:29:43.194Z,8.80
2018-11-02T08:32:13.243Z,10.23
2018-11-02T08:34:42.999Z,10.50
2018-11-02T08:37:12.840Z,8.77
2018-11-02T08:39:42.711Z,8.33
2018-11-02T08:42:12.595Z,8.30
2018-11-02T08:44:42.443Z,7.80
2018-11-02T08:47:12.296Z,8.17
2018-11-02T08:49:43.193Z,8.07
2018-11-02T08:52:13.132Z,7.70
2018-11-02T08:54:44.021Z,8.07
2018-11-02T08:57:13.892Z,8.23
2018-11-02T08:59:43.804Z,8.83
2018-11-02T09:02:13.659Z,7.97
2018-11-02T09:04:43.561Z,10.37
2018-11-02T09:07:13.423Z,9.10
2018-11-02T09:09:43.188Z,8.67
2018-11-02T09:12:16.866Z,9.80
2018-11-02T09:14:46.387Z,9.80
2018-11-02T09:17:15.975Z,8.63
2018-11-02T09:19:45.609Z,9.47
2018-11-02T09:22:15.234Z,9.03
2018-11-02T09:24:44.864Z,8.57
2018-11-02T09:27:15.508Z,9.90
2018-11-02T09:29:46.169Z,8.23
2018-11-02T09:32:15.783Z,10.07
2018-11-02T09:34:45.399Z,12.17
2018-11-02T09:37:14.989Z,22.10
2018-11-02T09:39:44.586Z,15.37
2018-11-02T09:42:14.434Z,14.97
2018-11-02T09:44:44.080Z,11.47
2018-11-02T09:47:14.040Z,12.33
2018-11-02T09:49:43.700Z,10.77
2018-11-02T09:52:14.335Z,10.53
2018-11-02T09:54:44.004Z,11.17
2018-11-02T09:57:13.723Z,11.53
2018-11-02T09:59:43.880Z,11.57
2018-11-02T10:02:13.555Z,11.10
2018-11-02T10:04:43.195Z,10.60
2018-11-02T10:07:12.895Z,9.20
2018-11-02T10:09:42.516Z,7.93
2018-11-02T10:12:12.145Z,8.43
2018-11-02T10:14:41.765Z,8.23
2018-11-02T10:17:12.439Z,6.67
2018-11-02T10:19:42.081Z,7.37
2018-11-02T10:22:11.748Z,8.40
2018-11-02T10:24:41.407Z,8.30
2018-11-02T10:27:11.170Z,11.60
2018-11-02T10:29:40.928Z,12.40
2018-11-02T10:32:10.620Z,31.00
2018-11-02T10:34:40.803Z,19.17
2018-11-02T10:37:10.494Z,21.13
2018-11-02T10:39:41.352Z,11.50
2018-11-02T10:42:11.800Z,13.43
2018-11-02T10:44:44.563Z,14.07
2018-11-02T10:47:14.939Z,11.40
2018-11-02T10:49:44.572Z,8.50
2018-11-02T10:52:15.202Z,7.73
2018-11-02T10:54:44.988Z,11.83
2018-11-02T10:57:14.518Z,15.13
2018-11-02T10:59:44.707Z,10.53
2018-11-02T11:02:19.480Z,10.50
2018-11-02T11:04:49.152Z,8.30
2018-11-02T11:07:18.775Z,7.83
2018-11-02T11:09:49.500Z,7.87
2018-11-02T11:12:19.215Z,7.63
2018-11-02T11:14:48.777Z,8.07
2018-11-02T11:17:18.857Z,12.90
2018-11-02T11:19:49.164Z,25.50
2018-11-02T11:22:18.798Z,16.50
2018-11-02T11:24:48.457Z,8.50
2018-11-02T11:27:18.147Z,9.30
2018-11-02T11:29:47.794Z,11.73
2018-11-02T11:32:17.468Z,10.27
2018-11-02T11:34:47.167Z,9.67
2018-11-02T11:37:17.835Z,9.83
2018-11-02T11:39:47.511Z,8.83
2018-11-02T11:42:17.194Z,8.50
2018-11-02T11:44:47.882Z,9.53
2018-11-02T11:47:17.506Z,12.77
2018-11-02T11:49:48.185Z,11.60
2018-11-02T11:52:18.869Z,11.67
2018-11-02T11:54:48.549Z,24.17
2018-11-02T11:57:18.380Z,33.37
2018-11-02T11:59:48.100Z,14.10
2018-11-02T12:02:18.786Z,25.33
2018-11-02T12:04:48.824Z,22.87
2018-11-02T12:07:19.480Z,21.17
2018-11-02T12:09:49.260Z,16.17
2018-11-02T12:12:18.960Z,20.50
2018-11-02T12:14:48.614Z,19.03
2018-11-02T12:17:18.266Z,18.37
2018-11-02T12:19:47.932Z,13.53
2018-11-02T12:22:17.559Z,12.90
2018-11-02T12:24:47.240Z,12.60
2018-11-02T12:27:16.904Z,11.20
2018-11-02T12:29:46.569Z,17.10
2018-11-02T12:32:16.219Z,11.63
2018-11-02T12:34:45.852Z,13.27
2018-11-02T12:37:15.562Z,14.77
2018-11-02T12:39:45.169Z,12.67
2018-11-02T12:42:14.858Z,12.93
2018-11-02T12:44:44.507Z,10.17
2018-11-02T12:47:14.191Z,13.37
2018-11-02T12:49:44.244Z,11.40
2018-11-02T12:52:13.459Z,12.77
2018-11-02T12:54:43.091Z,9.53
2018-11-02T12:57:12.704Z,9.60
2018-11-02T12:59:42.462Z,13.70
2018-11-02T13:02:12.087Z,10.38
2018-11-02T13:04:41.759Z,14.60
2018-11-02T13:07:11.388Z,16.80
2018-11-02T13:09:41.100Z,16.07
2018-11-02T13:12:10.852Z,15.53
2018-11-02T13:14:40.484Z,13.63
2018-11-02T13:17:10.083Z,16.67
2018-11-02T13:19:40.740Z,24.50
2018-11-02T13:22:10.430Z,28.53
2018-11-02T13:24:40.080Z,21.10
2018-11-02T13:27:10.751Z,20.33
2018-11-02T13:29:40.384Z,22.60
2018-11-02T13:32:09.983Z,14.83
2018-11-02T13:34:39.602Z,20.77
2018-11-02T13:37:09.311Z,17.07
2018-11-02T13:39:38.953Z,29.53
2018-11-02T13:42:08.628Z,33.60
2018-11-02T13:44:38.236Z,26.87
2018-11-02T13:47:07.907Z,27.60
2018-11-02T13:49:37.581Z,26.87
2018-11-02T13:52:08.312Z,21.80
2018-11-02T13:54:37.966Z,19.30
2018-11-02T13:57:08.144Z,18.77
2018-11-02T13:59:38.958Z,63.63
2018-11-02T14:02:09.606Z,31.60
2018-11-02T14:04:40.422Z,65.53
2018-11-02T14:07:10.060Z,38.67
2018-11-02T14:09:39.803Z,26.63
2018-11-02T14:12:09.469Z,21.60
2018-11-02T14:14:42.147Z,20.43
2018-11-02T14:17:11.764Z,16.63
2018-11-02T14:19:41.436Z,18.50
2018-11-02T14:22:11.134Z,21.53
2018-11-02T14:24:40.739Z,22.40
2018-11-02T14:27:11.171Z,23.37
2018-11-02T14:29:40.833Z,26.13
2018-11-02T14:32:10.519Z,35.30
2018-11-02T14:34:40.222Z,36.80
2018-11-02T14:37:09.863Z,37.33
2018-11-02T14:39:39.603Z,37.37
2018-11-02T14:42:09.311Z,24.93
2018-11-02T14:44:39.046Z,32.10
2018-11-02T14:47:09.710Z,72.03
2018-11-02T14:49:40.415Z,52.47
2018-11-02T14:52:11.116Z,37.47
2018-11-02T14:54:40.823Z,24.40
2018-11-02T14:57:10.443Z,30.67
2018-11-02T14:59:40.122Z,22.30
2018-11-02T15:02:10.821Z,22.47
2018-11-02T15:04:40.475Z,23.03
2018-11-02T15:07:10.083Z,23.67
2018-11-02T15:09:39.706Z,17.53
2018-11-02T15:12:09.420Z,20.97
2018-11-02T15:14:39.022Z,15.40
2018-11-02T15:17:08.711Z,16.90
2018-11-02T15:19:39.385Z,43.80
2018-11-02T15:22:09.065Z,30.27
2018-11-02T15:24:38.789Z,35.80
2018-11-02T15:27:08.460Z,35.33
2018-11-02T15:29:38.200Z,32.23
2018-11-02T15:32:07.838Z,26.30
2018-11-02T15:34:37.843Z,30.13
2018-11-02T15:37:07.452Z,37.30
2018-11-02T15:39:37.099Z,40.37
2018-11-02T15:42:07.747Z,26.00
2018-11-02T15:44:37.467Z,39.07
2018-11-02T15:47:07.093Z,33.53
2018-11-02T15:49:36.758Z,127.93
2018-11-02T15:52:06.412Z,70.13
2018-11-02T15:54:36.065Z,73.70
2018-11-02T15:57:06.254Z,69.07
2018-11-02T15:59:36.924Z,46.10
2018-11-02T16:02:07.217Z,58.63
2018-11-02T16:04:36.853Z,32.30
2018-11-02T16:07:06.593Z,45.07
2018-11-02T16:09:36.265Z,25.13
2018-11-02T16:12:06.289Z,18.80
2018-11-02T16:14:35.922Z,43.07
2018-11-02T16:17:05.888Z,30.13
2018-11-02T16:19:35.617Z,73.80
2018-11-02T16:22:05.677Z,65.37
2018-11-02T16:24:35.364Z,49.13
2018-11-02T16:27:05.503Z,48.90
2018-11-02T16:29:35.123Z,37.67
2018-11-02T16:32:05.628Z,47.73
2018-11-02T16:34:35.288Z,36.23
2018-11-02T16:37:05.667Z,27.90
2018-11-02T16:39:35.319Z,28.63
2018-11-02T16:42:05.963Z,26.97
2018-11-02T16:44:36.683Z,23.27
2018-11-02T16:47:06.545Z,31.23
2018-11-02T16:49:36.181Z,36.30
2018-11-02T16:52:06.176Z,32.63
2018-11-02T16:54:35.922Z,38.93
2018-11-02T16:57:06.578Z,30.20
2018-11-02T16:59:36.240Z,53.17
2018-11-02T17:02:06.044Z,162.57
2018-11-02T17:04:35.741Z,239.40
2018-11-02T17:07:05.466Z,177.70
2018-11-02T17:09:40.930Z,345.67
2018-11-02T17:12:10.609Z,71.03
2018-11-02T17:14:40.264Z,41.70
2018-11-02T17:17:10.028Z,38.10
2018-11-02T17:19:40.104Z,39.70
2018-11-02T17:22:09.764Z,29.30
2018-11-02T17:24:40.431Z,25.33
2018-11-02T17:27:10.085Z,27.10
2018-11-02T17:29:39.852Z,32.93
2018-11-02T17:32:09.481Z,81.37
2018-11-02T17:34:40.101Z,69.90
2018-11-02T17:37:10.784Z,249.37
2018-11-02T17:39:40.410Z,60.50
2018-11-02T17:42:10.048Z,105.70
2018-11-02T17:44:39.715Z,142.93
2018-11-02T17:47:10.383Z,117.93
2018-11-02T17:49:41.060Z,103.90
2018-11-02T17:52:10.723Z,103.03
2018-11-02T17:54:41.418Z,105.50
2018-11-02T17:57:11.050Z,100.00
2018-11-02T17:59:40.725Z,79.50
2018-11-02T18:02:11.410Z,83.37
2018-11-02T18:04:41.252Z,82.03
2018-11-02T18:07:16.830Z,71.10
2018-11-02T18:09:47.277Z,69.83
2018-11-02T18:12:17.423Z,49.40
2018-11-02T18:14:47.803Z,74.67
2018-11-02T18:17:18.421Z,97.57
2018-11-02T18:19:48.068Z,122.77
2018-11-02T18:22:18.052Z,90.43
2018-11-02T18:24:47.617Z,55.83
2018-11-02T18:27:18.270Z,51.70
2018-11-02T18:29:47.982Z,33.07
2018-11-02T18:32:17.610Z,28.90
2018-11-02T18:34:47.383Z,39.03
2018-11-02T18:37:17.006Z,28.60
2018-11-02T18:39:46.758Z,41.93
2018-11-02T18:42:16.424Z,43.00
2018-11-02T18:44:46.185Z,52.67
2018-11-02T18:47:15.800Z,50.40
2018-11-02T18:49:45.542Z,46.40
2018-11-02T18:52:15.172Z,82.30
2018-11-02T18:54:44.862Z,43.40
2018-11-02T18:57:15.502Z,42.70
2018-11-02T19:00:17.409Z,40.13
2018-11-02T19:02:49.588Z,35.43
2018-11-02T19:05:34.777Z,39.67
2018-11-02T19:08:05.290Z,37.27
2018-11-02T19:10:34.932Z,101.80
2018-11-02T19:13:06.222Z,144.20
2018-11-02T19:15:35.913Z,85.73
2018-11-02T19:18:06.639Z,84.40
2018-11-02T19:20:36.319Z,59.33
2018-11-02T19:23:05.994Z,41.50
2018-11-02T19:25:36.344Z,36.40
2018-11-02T19:28:07.081Z,35.50
2018-11-02T19:30:36.757Z,26.97
2018-11-02T19:33:06.624Z,23.60
2018-11-02T19:35:36.325Z,22.70
2018-11-02T19:38:06.432Z,21.90
2018-11-02T19:40:36.026Z,21.13
2018-11-02T19:43:05.717Z,22.93
2018-11-02T19:45:35.392Z,21.40
2018-11-02T19:48:06.192Z,19.90
2018-11-02T19:50:36.895Z,20.17
2018-11-02T19:53:07.551Z,22.43
2018-11-02T19:55:37.399Z,21.03
2018-11-02T19:58:07.090Z,24.60
2018-11-02T20:00:37.738Z,26.47
2018-11-02T20:03:08.385Z,24.37
2018-11-02T20:05:40.070Z,25.50
2018-11-02T20:08:09.788Z,25.10
2018-11-02T20:10:40.581Z,29.83
2018-11-02T20:13:10.208Z,31.67
2018-11-02T20:15:39.815Z,30.10
2018-11-02T20:18:09.435Z,19.67
2018-11-02T20:20:39.107Z,20.77
2018-11-02T20:23:08.733Z,31.40
2018-11-02T20:25:38.419Z,21.27
2018-11-02T20:28:08.068Z,29.63
2018-11-02T20:30:37.699Z,29.53
2018-11-02T20:33:07.361Z,43.67
2018-11-02T20:35:37.039Z,43.53
2018-11-02T20:38:06.744Z,40.80
2018-11-02T20:40:36.411Z,26.90
2018-11-02T20:43:06.098Z,33.63
2018-11-02T20:45:36.715Z,28.87
2018-11-02T20:48:14.746Z,26.97
2018-11-02T20:50:45.147Z,26.30
2018-11-02T20:53:14.767Z,23.70
2018-11-02T20:55:44.420Z,23.50
2018-11-02T20:58:14.006Z,22.93
2018-11-02T21:00:43.652Z,24.20
2018-11-02T21:03:13.261Z,24.30
2018-11-02T21:05:44.057Z,32.43
2018-11-02T21:08:13.980Z,17.53
2018-11-02T21:10:43.540Z,18.27
2018-11-02T21:13:13.198Z,21.10
2018-11-02T21:15:42.829Z,21.83
2018-11-02T21:18:13.508Z,18.37
2018-11-02T21:20:43.498Z,14.93
2018-11-02T21:23:12.836Z,24.20
2018-11-02T21:25:42.491Z,18.27
2018-11-02T21:28:12.932Z,21.77
2018-11-02T21:30:43.784Z,18.83
2018-11-02T21:33:14.491Z,19.93
2018-11-02T21:35:44.128Z,16.43
2018-11-02T21:38:13.860Z,15.10
2018-11-02T21:40:43.415Z,16.03
2018-11-02T21:43:13.044Z,15.47
2018-11-02T21:45:42.752Z,15.80
2018-11-02T21:48:12.431Z,15.97
2018-11-02T21:50:42.089Z,18.43
2018-11-02T21:53:11.760Z,17.50
2018-11-02T21:55:41.388Z,14.80
2018-11-02T21:58:11.052Z,16.40
2018-11-02T22:00:40.631Z,15.57
2018-11-02T22:03:10.301Z,16.33
2018-11-02T22:05:39.928Z,15.83
2018-11-02T22:08:09.552Z,16.17
2018-11-02T22:10:39.204Z,21.87
2018-11-02T22:13:08.875Z,20.03
2018-11-02T22:15:38.506Z,21.33
2018-11-02T22:18:08.155Z,20.97
2018-11-02T22:20:38.819Z,17.23
2018-11-02T22:23:08.467Z,19.20
2018-11-02T22:25:38.080Z,18.57
2018-11-02T22:28:07.776Z,19.47
2018-11-02T22:30:37.447Z,16.93
2018-11-02T22:33:07.059Z,18.37
2018-11-02T22:35:36.723Z,17.50
2018-11-02T22:38:06.476Z,15.40
2018-11-02T22:40:36.129Z,17.03
2018-11-02T22:43:05.785Z,17.20
2018-11-02T22:45:35.435Z,19.03
2018-11-02T22:48:11.891Z,17.13
2018-11-02T22:50:41.550Z,19.50
2018-11-02T22:53:11.695Z,20.03
2018-11-02T22:55:42.367Z,19.17
2018-11-02T22:58:12.064Z,16.73
2018-11-02T23:00:46.943Z,16.73
2018-11-02T23:03:16.572Z,19.50
2018-11-02T23:05:46.254Z,24.13
2018-11-02T23:08:15.885Z,27.23
2018-11-02T23:10:45.497Z,29.17
2018-11-02T23:13:15.161Z,23.70
2018-11-02T23:15:44.850Z,19.60
2018-11-02T23:18:15.547Z,16.90
2018-11-02T23:20:46.214Z,18.00
2018-11-02T23:23:15.833Z,20.07
2018-11-02T23:25:45.448Z,17.00
2018-11-02T23:28:15.072Z,16.90
2018-11-02T23:30:44.742Z,16.43
2018-11-02T23:33:14.393Z,16.13
2018-11-02T23:35:44.019Z,16.33
2018-11-02T23:38:13.654Z,14.90
2018-11-02T23:40:43.249Z,14.47
2018-11-02T23:43:12.894Z,14.17
2018-11-02T23:45:42.507Z,14.10
2018-11-02T23:48:17.398Z,14.60
2018-11-02T23:50:47.983Z,14.43
2018-11-02T23:53:17.719Z,14.60
2018-11-02T23:55:47.760Z,16.70
2018-11-02T23:58:18.510Z,15.47
